createdAt,value
2022-11-28T00:00:42.181Z,0.00
2022-11-28T00:01:42.192Z,0.00
2022-11-28T00:02:42.231Z,0.00
2022-11-28T00:03:42.281Z,0.00
2022-11-28T00:04:42.421Z,0.00
2022-11-28T00:05:46.841Z,0.00
2022-11-28T00:06:42.128Z,0.00
2022-11-28T00:07:42.274Z,0.00
2022-11-28T00:08:42.113Z,0.00
2022-11-28T00:09:42.094Z,0.00
2022-11-28T00:10:42.085Z,0.00
2022-11-28T00:11:42.045Z,0.00
2022-11-28T00:12:42.043Z,0.00
2022-11-28T00:13:42.027Z,0.00
2022-11-28T00:14:42.278Z,0.00
2022-11-28T00:15:42.050Z,0.00
2022-11-28T00:16:42.004Z,0.00
2022-11-28T00:17:41.963Z,0.00
2022-11-28T00:18:41.947Z,0.00
2022-11-28T00:19:41.959Z,0.00
2022-11-28T00:20:41.937Z,0.00
2022-11-28T00:21:41.946Z,0.00
2022-11-28T00:22:41.929Z,0.00
2022-11-28T00:23:41.913Z,0.00
2022-11-28T00:24:42.176Z,0.00
2022-11-28T00:25:41.898Z,0.00
2022-11-28T00:26:41.903Z,0.00
2022-11-28T00:27:41.888Z,0.00
2022-11-28T00:28:41.830Z,0.00
2022-11-28T00:29:41.833Z,0.00
2022-11-28T00:30:41.832Z,0.00
2022-11-28T00:31:41.928Z,0.00
2022-11-28T00:32:41.790Z,0.00
2022-11-28T00:33:41.773Z,0.00
2022-11-28T00:34:42.068Z,0.00
2022-11-28T00:35:41.759Z,0.00
2022-11-28T00:36:41.739Z,0.00
2022-11-28T00:37:41.721Z,0.00
2022-11-28T00:38:41.709Z,0.00
2022-11-28T00:39:41.737Z,0.00
2022-11-28T00:40:41.673Z,0.00
2022-11-28T00:42:53.322Z,0.00
2022-11-28T00:43:54.311Z,0.00
2022-11-28T00:44:54.299Z,0.00
2022-11-28T00:45:54.333Z,0.00
2022-11-28T00:46:54.327Z,0.00
2022-11-28T00:47:54.302Z,0.00
2022-11-28T00:48:54.270Z,0.00
2022-11-28T00:49:54.280Z,0.00
2022-11-28T00:50:54.219Z,0.00
2022-11-28T00:51:54.223Z,0.00
2022-11-28T00:52:54.235Z,0.00
2022-11-28T00:53:54.212Z,0.00
2022-11-28T00:54:54.170Z,0.00
2022-11-28T00:55:54.164Z,0.00
2022-11-28T00:56:54.158Z,0.00
2022-11-28T00:57:54.167Z,0.00
2022-11-28T00:58:54.123Z,0.00
2022-11-28T00:59:54.138Z,0.00
2022-11-28T01:00:54.132Z,0.00
2022-11-28T01:01:54.149Z,0.00
2022-11-28T01:02:54.080Z,0.00
2022-11-28T01:03:54.088Z,0.00
2022-11-28T01:04:54.058Z,0.00
2022-11-28T01:05:54.029Z,0.00
2022-11-28T01:06:54.045Z,0.00
2022-11-28T01:07:54.062Z,0.00
2022-11-28T01:08:54.002Z,0.00
2022-11-28T01:09:53.991Z,0.00
2022-11-28T01:10:53.996Z,0.00
2022-11-28T01:11:53.997Z,0.00
2022-11-28T01:12:53.969Z,0.00
2022-11-28T01:13:53.930Z,0.00
2022-11-28T01:14:53.916Z,0.00
2022-11-28T01:15:54.108Z,0.00
2022-11-28T01:16:53.990Z,0.00
2022-11-28T01:17:53.989Z,0.00
2022-11-28T01:18:53.881Z,0.00
2022-11-28T01:19:53.866Z,0.00
2022-11-28T01:20:53.855Z,0.00
2022-11-28T01:21:53.877Z,0.00
2022-11-28T01:22:53.807Z,0.00
2022-11-28T01:23:53.838Z,0.00
2022-11-28T01:24:53.797Z,0.00
2022-11-28T01:25:53.838Z,0.00
2022-11-28T01:26:53.779Z,0.00
2022-11-28T01:27:53.795Z,0.00
2022-11-28T01:28:53.768Z,0.00
2022-11-28T01:29:53.756Z,0.00
2022-11-28T01:30:53.720Z,0.00
2022-11-28T01:31:53.799Z,0.00
2022-11-28T01:32:53.757Z,0.00
2022-11-28T01:33:53.725Z,0.00
2022-11-28T01:34:53.686Z,0.00
2022-11-28T01:35:53.657Z,0.00
2022-11-28T01:36:53.701Z,0.00
2022-11-28T01:37:53.643Z,0.00
2022-11-28T01:38:53.641Z,0.00
2022-11-28T01:39:53.660Z,0.00
2022-11-28T01:40:53.648Z,0.00
2022-11-28T01:41:53.621Z,0.00
2022-11-28T01:42:53.607Z,0.00
2022-11-28T01:43:53.546Z,0.00
2022-11-28T01:44:53.549Z,0.00
2022-11-28T01:45:53.518Z,0.00
2022-11-28T01:46:53.587Z,0.00
2022-11-28T01:47:53.491Z,0.00
2022-11-28T01:48:53.500Z,0.00
2022-11-28T01:49:53.478Z,0.00
2022-11-28T01:50:53.451Z,0.00
2022-11-28T01:51:53.506Z,0.00
2022-11-28T01:52:53.413Z,0.00
2022-11-28T01:53:53.441Z,0.00
2022-11-28T01:54:53.420Z,0.00
2022-11-28T01:55:53.411Z,0.00
2022-11-28T01:56:53.359Z,0.00
2022-11-28T01:57:53.423Z,0.00
2022-11-28T01:58:53.389Z,0.00
2022-11-28T01:59:53.372Z,0.00
2022-11-28T02:00:53.404Z,0.00
2022-11-28T02:01:53.365Z,0.00
2022-11-28T02:02:53.307Z,0.00
2022-11-28T02:03:53.376Z,0.00
2022-11-28T02:04:53.258Z,0.00
2022-11-28T02:05:53.277Z,0.00
2022-11-28T02:06:53.285Z,0.00
2022-11-28T02:07:53.349Z,0.00
2022-11-28T02:08:53.345Z,0.00
2022-11-28T02:09:53.253Z,0.00
2022-11-28T02:10:53.258Z,0.00
2022-11-28T02:11:53.249Z,0.00
2022-11-28T02:12:53.205Z,0.00
2022-11-28T02:13:53.158Z,0.00
2022-11-28T02:14:53.157Z,0.00
2022-11-28T02:15:53.230Z,0.00
2022-11-28T02:16:53.190Z,0.00
2022-11-28T02:17:53.203Z,0.00
2022-11-28T02:18:53.091Z,0.00
2022-11-28T02:19:53.135Z,0.00
2022-11-28T02:20:53.078Z,0.00
2022-11-28T02:21:53.120Z,0.00
2022-11-28T02:22:53.053Z,0.00
2022-11-28T02:23:53.046Z,0.00
2022-11-28T02:24:52.994Z,0.00
2022-11-28T02:25:53.006Z,0.00
2022-11-28T02:26:52.978Z,0.00
2022-11-28T02:27:52.987Z,0.00
2022-11-28T02:28:53.054Z,0.00
2022-11-28T02:29:52.938Z,0.00
2022-11-28T02:30:52.925Z,0.00
2022-11-28T02:31:53.012Z,0.00
2022-11-28T02:32:52.904Z,0.00
2022-11-28T02:33:52.937Z,0.00
2022-11-28T02:34:53.072Z,0.00
2022-11-28T02:35:52.862Z,0.00
2022-11-28T02:36:52.846Z,0.00
2022-11-28T02:37:52.898Z,0.00
2022-11-28T02:38:52.838Z,0.00
2022-11-28T02:39:52.828Z,0.00
2022-11-28T02:40:52.809Z,0.00
2022-11-28T02:41:52.810Z,0.00
2022-11-28T02:42:52.780Z,0.00
2022-11-28T02:43:52.778Z,0.00
2022-11-28T02:44:52.774Z,0.00
2022-11-28T02:45:52.737Z,0.00
2022-11-28T02:46:52.754Z,0.00
2022-11-28T02:47:52.762Z,0.00
2022-11-28T02:48:52.714Z,0.00
2022-11-28T02:49:52.696Z,0.00
2022-11-28T02:50:52.661Z,0.00
2022-11-28T02:51:52.753Z,0.00
2022-11-28T02:52:52.650Z,0.00
2022-11-28T02:53:52.653Z,0.00
2022-11-28T02:54:52.639Z,0.00
2022-11-28T02:55:52.655Z,0.00
2022-11-28T02:56:52.623Z,0.00
2022-11-28T02:57:52.650Z,0.00
2022-11-28T02:58:52.602Z,0.00
2022-11-28T02:59:52.561Z,0.00
2022-11-28T03:00:52.603Z,0.00
2022-11-28T03:01:52.563Z,0.00
2022-11-28T03:02:52.534Z,0.00
2022-11-28T03:03:52.538Z,0.00
2022-11-28T03:04:52.534Z,0.00
2022-11-28T03:05:52.488Z,0.00
2022-11-28T03:06:52.463Z,0.00
2022-11-28T03:07:52.531Z,0.00
2022-11-28T03:08:52.427Z,0.00
2022-11-28T03:09:52.459Z,0.00
2022-11-28T03:10:52.415Z,0.00
2022-11-28T03:11:52.422Z,0.00
2022-11-28T03:12:52.393Z,0.00
2022-11-28T03:13:52.410Z,0.00
2022-11-28T03:14:52.373Z,0.00
2022-11-28T03:15:52.429Z,0.00
2022-11-28T03:16:52.348Z,0.00
2022-11-28T03:17:52.355Z,0.00
2022-11-28T03:18:52.338Z,0.00
2022-11-28T03:19:52.333Z,0.00
2022-11-28T03:20:52.352Z,0.00
2022-11-28T03:21:52.296Z,0.00
2022-11-28T03:22:52.283Z,0.00
2022-11-28T03:23:52.271Z,0.00
2022-11-28T03:24:52.251Z,0.00
2022-11-28T03:25:52.340Z,0.00
2022-11-28T03:26:52.204Z,0.00
2022-11-28T03:27:52.200Z,0.00
2022-11-28T03:28:52.254Z,0.00
2022-11-28T03:29:52.179Z,0.00
2022-11-28T03:30:52.217Z,0.00
2022-11-28T03:31:52.212Z,0.00
2022-11-28T03:32:52.122Z,0.00
2022-11-28T03:33:52.164Z,0.00
2022-11-28T03:34:52.182Z,0.00
2022-11-28T03:35:52.138Z,0.00
2022-11-28T03:36:52.080Z,0.00
2022-11-28T03:37:52.108Z,0.00
2022-11-28T03:38:52.101Z,0.00
2022-11-28T03:39:52.050Z,0.00
2022-11-28T03:40:52.079Z,0.00
2022-11-28T03:41:52.046Z,0.00
2022-11-28T03:42:52.028Z,0.00
2022-11-28T03:43:52.015Z,0.00
2022-11-28T03:44:52.034Z,0.00
2022-11-28T03:45:52.012Z,0.00
2022-11-28T03:46:52.035Z,0.00
2022-11-28T03:47:51.959Z,0.00
2022-11-28T03:48:52.030Z,0.00
2022-11-28T03:49:51.899Z,0.00
2022-11-28T03:50:51.908Z,0.00
2022-11-28T03:51:51.898Z,0.00
2022-11-28T03:52:51.866Z,0.00
2022-11-28T03:53:51.900Z,0.00
2022-11-28T03:54:51.876Z,0.00
2022-11-28T03:55:51.969Z,0.00
2022-11-28T03:56:51.846Z,0.00
2022-11-28T03:57:51.892Z,0.00
2022-11-28T03:58:51.976Z,0.00
2022-11-28T03:59:51.815Z,0.00
2022-11-28T04:00:51.845Z,0.00
2022-11-28T04:01:51.835Z,0.00
2022-11-28T04:02:51.794Z,0.00
2022-11-28T04:03:51.755Z,0.00
2022-11-28T04:04:51.764Z,0.00
2022-11-28T04:05:51.742Z,0.00
2022-11-28T04:06:51.688Z,0.00
2022-11-28T04:07:51.743Z,0.00
2022-11-28T04:08:51.715Z,0.00
2022-11-28T04:09:51.697Z,0.00
2022-11-28T04:10:51.770Z,0.00
2022-11-28T04:11:51.635Z,0.00
2022-11-28T04:12:51.652Z,0.00
2022-11-28T04:13:51.604Z,0.00
2022-11-28T04:14:51.585Z,0.00
2022-11-28T04:15:51.627Z,0.00
2022-11-28T04:16:53.951Z,0.00
2022-11-28T04:17:51.588Z,0.00
2022-11-28T04:18:51.554Z,0.00
2022-11-28T04:19:51.583Z,0.00
2022-11-28T04:20:51.574Z,0.00
2022-11-28T04:21:51.525Z,0.00
2022-11-28T04:22:51.478Z,0.00
2022-11-28T04:23:51.564Z,0.00
2022-11-28T04:24:51.496Z,0.00
2022-11-28T04:25:51.473Z,0.00
2022-11-28T04:26:51.429Z,0.00
2022-11-28T04:27:51.474Z,0.00
2022-11-28T04:28:51.417Z,0.00
2022-11-28T04:29:51.437Z,0.00
2022-11-28T04:30:51.383Z,0.00
2022-11-28T04:31:51.492Z,0.00
2022-11-28T04:32:51.423Z,0.00
2022-11-28T04:33:51.459Z,0.00
2022-11-28T04:34:51.333Z,0.00
2022-11-28T04:35:51.410Z,0.00
2022-11-28T04:36:51.367Z,0.00
2022-11-28T04:37:51.289Z,0.00
2022-11-28T04:38:51.296Z,0.00
2022-11-28T04:39:51.401Z,0.00
2022-11-28T04:40:51.307Z,0.00
2022-11-28T04:41:51.255Z,0.00
2022-11-28T04:42:53.000Z,0.00
2022-11-28T04:43:51.199Z,0.00
2022-11-28T04:44:51.269Z,0.00
2022-11-28T04:45:51.313Z,0.00
2022-11-28T04:46:51.221Z,0.00
2022-11-28T04:47:51.270Z,0.00
2022-11-28T04:48:51.185Z,0.00
2022-11-28T04:49:51.135Z,0.00
2022-11-28T04:50:51.133Z,0.00
2022-11-28T04:51:51.138Z,0.00
2022-11-28T04:52:51.190Z,0.00
2022-11-28T04:53:51.106Z,0.00
2022-11-28T04:54:51.161Z,0.00
2022-11-28T04:55:51.209Z,0.00
2022-11-28T04:56:51.104Z,0.00
2022-11-28T04:57:56.920Z,0.00
2022-11-28T04:58:51.125Z,0.00
2022-11-28T04:59:51.093Z,0.00
2022-11-28T05:00:51.054Z,0.00
2022-11-28T05:01:51.046Z,0.00
2022-11-28T05:02:51.004Z,0.00
2022-11-28T05:03:50.943Z,0.00
2022-11-28T05:04:51.037Z,0.00
2022-11-28T05:05:51.048Z,0.00
2022-11-28T05:06:50.926Z,0.00
2022-11-28T05:07:51.042Z,0.00
2022-11-28T05:08:50.967Z,0.00
2022-11-28T05:09:50.885Z,0.00
2022-11-28T05:10:50.854Z,0.00
2022-11-28T05:11:50.863Z,0.00
2022-11-28T05:12:50.918Z,0.00
2022-11-28T05:13:50.922Z,0.00
2022-11-28T05:14:50.816Z,0.00
2022-11-28T05:15:50.835Z,0.00
2022-11-28T05:16:50.975Z,0.00
2022-11-28T05:17:50.850Z,0.00
2022-11-28T05:18:50.787Z,0.00
2022-11-28T05:19:50.842Z,0.00
2022-11-28T05:20:50.790Z,0.00
2022-11-28T05:21:50.742Z,0.00
2022-11-28T05:22:50.766Z,0.00
2022-11-28T05:23:50.771Z,0.00
2022-11-28T05:24:50.772Z,0.00
2022-11-28T05:25:50.738Z,0.00
2022-11-28T05:26:50.681Z,0.00
2022-11-28T05:27:50.771Z,0.00
2022-11-28T05:28:50.703Z,0.00
2022-11-28T05:29:52.398Z,0.00
2022-11-28T05:30:50.645Z,0.00
2022-11-28T05:31:50.787Z,0.00
2022-11-28T05:32:50.582Z,0.00
2022-11-28T05:33:50.711Z,0.00
2022-11-28T05:34:50.557Z,0.00
2022-11-28T05:35:50.638Z,0.00
2022-11-28T05:36:50.555Z,0.00
2022-11-28T05:37:50.525Z,0.00
2022-11-28T05:38:50.562Z,0.00
2022-11-28T05:39:50.511Z,0.00
2022-11-28T05:40:50.578Z,0.00
2022-11-28T05:41:50.535Z,0.00
2022-11-28T05:42:50.448Z,0.00
2022-11-28T05:43:50.456Z,0.00
2022-11-28T05:44:50.517Z,0.00
2022-11-28T05:45:50.452Z,0.00
2022-11-28T05:46:50.438Z,0.00
2022-11-28T05:47:50.393Z,0.00
2022-11-28T05:48:50.408Z,0.00
2022-11-28T05:49:50.369Z,0.00
2022-11-28T05:50:50.405Z,0.00
2022-11-28T05:51:50.448Z,0.00
2022-11-28T05:52:50.346Z,0.00
2022-11-28T05:53:50.343Z,0.00
2022-11-28T05:54:50.367Z,0.00
2022-11-28T05:55:50.316Z,0.00
2022-11-28T05:56:50.387Z,0.00
2022-11-28T05:57:50.457Z,0.00
2022-11-28T05:58:50.267Z,0.00
2022-11-28T05:59:50.355Z,0.00
2022-11-28T06:00:50.280Z,0.00
2022-11-28T06:01:50.326Z,0.00
2022-11-28T06:02:50.243Z,0.00
2022-11-28T06:03:50.215Z,0.00
2022-11-28T06:04:50.250Z,0.00
2022-11-28T06:05:50.150Z,0.00
2022-11-28T06:06:50.192Z,0.00
2022-11-28T06:07:50.205Z,0.00
2022-11-28T06:08:50.175Z,0.00
2022-11-28T06:09:50.128Z,0.00
2022-11-28T06:10:50.129Z,4.00
2022-11-28T06:11:50.120Z,4.00
2022-11-28T06:12:50.097Z,0.00
2022-11-28T06:13:50.079Z,4.00
2022-11-28T06:14:50.067Z,0.00
2022-11-28T06:15:50.073Z,4.00
2022-11-28T06:16:50.095Z,4.00
2022-11-28T06:17:50.053Z,8.00
2022-11-28T06:18:50.028Z,4.00
2022-11-28T06:19:50.117Z,4.00
2022-11-28T06:20:49.990Z,8.00
2022-11-28T06:21:50.051Z,12.00
2022-11-28T06:22:49.976Z,12.00
2022-11-28T06:23:49.913Z,16.00
2022-11-28T06:24:49.897Z,12.00
2022-11-28T06:25:50.044Z,16.00
2022-11-28T06:26:49.919Z,20.00
2022-11-28T06:27:49.937Z,24.00
2022-11-28T06:28:49.918Z,28.00
2022-11-28T06:29:49.834Z,32.00
2022-11-28T06:30:49.904Z,36.00
2022-11-28T06:31:49.890Z,40.00
2022-11-28T06:32:49.839Z,44.00
2022-11-28T06:33:49.825Z,52.00
2022-11-28T06:34:49.811Z,56.00
2022-11-28T06:35:49.787Z,64.00
2022-11-28T06:36:49.843Z,68.00
2022-11-28T06:37:49.816Z,76.00
2022-11-28T06:38:49.734Z,84.00
2022-11-28T06:39:49.765Z,92.00
2022-11-28T06:40:49.757Z,100.00
2022-11-28T06:41:49.755Z,112.00
2022-11-28T06:42:56.742Z,120.00
2022-11-28T06:43:49.680Z,132.00
2022-11-28T06:44:49.666Z,140.00
2022-11-28T06:45:49.718Z,152.00
2022-11-28T06:46:49.623Z,160.00
2022-11-28T06:47:49.638Z,176.00
2022-11-28T06:48:49.626Z,184.00
2022-11-28T06:49:49.605Z,196.00
2022-11-28T06:50:49.613Z,208.00
2022-11-28T06:51:49.587Z,220.00
2022-11-28T06:52:49.576Z,232.00
2022-11-28T06:53:49.555Z,240.00
2022-11-28T06:54:49.606Z,256.00
2022-11-28T06:55:49.522Z,268.00
2022-11-28T06:56:49.535Z,284.00
2022-11-28T06:57:50.316Z,296.00
2022-11-28T06:58:49.516Z,316.00
2022-11-28T06:59:49.458Z,328.00
2022-11-28T07:00:49.522Z,344.00
2022-11-28T07:01:49.553Z,360.00
2022-11-28T07:02:49.495Z,380.00
2022-11-28T07:03:49.466Z,396.00
2022-11-28T07:04:49.411Z,416.00
2022-11-28T07:05:49.419Z,444.00
2022-11-28T07:06:49.422Z,468.00
2022-11-28T07:07:54.233Z,500.00
2022-11-28T07:08:49.430Z,532.00
2022-11-28T07:09:49.325Z,568.00
2022-11-28T07:10:49.302Z,600.00
2022-11-28T07:11:49.306Z,624.00
2022-11-28T07:12:49.298Z,640.00
2022-11-28T07:13:49.771Z,648.00
2022-11-28T07:14:49.285Z,668.00
2022-11-28T07:15:49.272Z,704.00
2022-11-28T07:16:49.435Z,752.00
2022-11-28T07:17:49.262Z,820.00
2022-11-28T07:18:49.270Z,896.00
2022-11-28T07:19:53.549Z,984.00
2022-11-28T07:20:49.224Z,1076.00
2022-11-28T07:21:49.194Z,1144.00
2022-11-28T07:22:49.264Z,1228.00
2022-11-28T07:23:49.204Z,1328.00
2022-11-28T07:24:49.170Z,1408.00
2022-11-28T07:25:49.176Z,1464.00
2022-11-28T07:26:49.155Z,1516.00
2022-11-28T07:27:49.146Z,1572.00
2022-11-28T07:28:49.182Z,1628.00
2022-11-28T07:29:49.136Z,1672.00
2022-11-28T07:30:49.229Z,1708.00
2022-11-28T07:31:49.137Z,1748.00
2022-11-28T07:32:49.168Z,1784.00
2022-11-28T07:33:49.111Z,1848.00
2022-11-28T07:34:50.334Z,1920.00
2022-11-28T07:35:49.170Z,1996.00
2022-11-28T07:36:49.087Z,2056.00
2022-11-28T07:37:49.129Z,2108.00
2022-11-28T07:38:48.988Z,2148.00
2022-11-28T07:39:48.977Z,2192.00
2022-11-28T07:40:49.728Z,2224.00
2022-11-28T07:41:49.036Z,2260.00
2022-11-28T07:42:49.001Z,2268.00
2022-11-28T07:43:49.050Z,2344.00
2022-11-28T07:44:49.028Z,2352.00
2022-11-28T07:46:00.496Z,2416.00
2022-11-28T07:46:49.122Z,2536.00
2022-11-28T07:47:48.987Z,2520.00
2022-11-28T07:48:48.907Z,2544.00
2022-11-28T07:49:48.822Z,2652.00
2022-11-28T07:50:49.026Z,2660.00
2022-11-28T07:51:48.915Z,2644.00
2022-11-28T07:52:48.855Z,2708.00
2022-11-28T07:53:48.997Z,2604.00
2022-11-28T07:54:48.768Z,2792.00
2022-11-28T07:55:48.836Z,2640.00
2022-11-28T07:57:48.940Z,2764.00
2022-11-28T07:58:48.723Z,2752.00
2022-11-28T07:59:48.788Z,2996.00
2022-11-28T08:00:48.908Z,2952.00
2022-11-28T08:01:48.948Z,2740.00
2022-11-28T08:02:48.964Z,2920.00
2022-11-28T08:03:48.726Z,2752.00
2022-11-28T08:04:53.945Z,2984.00
2022-11-28T08:05:48.642Z,2972.00
2022-11-28T08:06:48.634Z,2800.00
2022-11-28T08:07:48.645Z,2916.00
2022-11-28T08:08:48.706Z,3044.00
2022-11-28T08:09:48.570Z,2988.00
2022-11-28T08:10:49.300Z,2948.00
2022-11-28T08:11:48.579Z,3160.00
2022-11-28T08:12:48.519Z,3268.00
2022-11-28T08:13:48.584Z,3328.00
2022-11-28T08:14:48.550Z,3376.00
2022-11-28T08:15:48.837Z,3396.00
2022-11-28T08:16:48.521Z,3536.00
2022-11-28T08:17:48.488Z,3660.00
2022-11-28T08:18:48.495Z,3656.00
2022-11-28T08:19:48.482Z,3808.00
2022-11-28T08:20:48.448Z,3980.00
2022-11-28T08:21:48.404Z,4044.00
2022-11-28T08:22:48.388Z,4092.00
2022-11-28T08:23:48.424Z,4176.00
2022-11-28T08:24:48.359Z,4264.00
2022-11-28T08:25:48.419Z,4284.00
2022-11-28T08:26:48.370Z,4296.00
2022-11-28T08:27:48.368Z,4296.00
2022-11-28T08:28:48.404Z,4408.00
2022-11-28T08:29:52.181Z,4456.00
2022-11-28T08:30:48.385Z,4500.00
2022-11-28T08:31:48.282Z,4588.00
2022-11-28T08:32:48.250Z,4676.00
2022-11-28T08:33:48.309Z,4768.00
2022-11-28T08:34:48.305Z,4860.00
2022-11-28T08:35:48.222Z,4892.00
2022-11-28T08:36:48.211Z,4916.00
2022-11-28T08:37:48.215Z,4960.00
2022-11-28T08:39:03.241Z,4988.00
2022-11-28T08:39:48.295Z,5040.00
2022-11-28T08:40:48.182Z,5088.00
2022-11-28T08:41:48.180Z,5216.00
2022-11-28T08:42:48.154Z,5204.00
2022-11-28T08:43:48.161Z,5216.00
2022-11-28T08:44:48.140Z,5412.00
2022-11-28T08:45:48.155Z,5408.00
2022-11-28T08:46:48.597Z,5460.00
2022-11-28T08:47:48.071Z,5508.00
2022-11-28T08:48:48.101Z,5620.00
2022-11-28T08:49:48.076Z,5748.00
2022-11-28T08:50:48.324Z,5864.00
2022-11-28T08:51:48.035Z,5972.00
2022-11-28T08:52:48.002Z,6076.00
2022-11-28T08:53:49.478Z,6184.00
2022-11-28T08:54:47.948Z,6248.00
2022-11-28T08:55:48.014Z,6344.00
2022-11-28T08:56:47.941Z,6436.00
2022-11-28T08:57:47.913Z,6552.00
2022-11-28T08:58:47.893Z,6716.00
2022-11-28T08:59:47.890Z,6904.00
2022-11-28T09:00:47.889Z,7108.00
2022-11-28T09:01:47.971Z,7284.00
2022-11-28T09:02:47.845Z,7532.00
2022-11-28T09:03:47.901Z,7708.00
2022-11-28T09:04:48.847Z,7844.00
2022-11-28T09:05:47.812Z,7988.00
2022-11-28T09:06:47.847Z,8108.00
2022-11-28T09:07:47.874Z,8312.00
2022-11-28T09:08:47.824Z,8452.00
2022-11-28T09:09:48.281Z,8588.00
2022-11-28T09:10:47.769Z,8744.00
2022-11-28T09:11:47.795Z,8848.00
2022-11-28T09:12:47.756Z,8948.00
2022-11-28T09:13:47.754Z,8996.00
2022-11-28T09:14:47.706Z,8924.00
2022-11-28T09:15:51.241Z,8812.00
2022-11-28T09:16:47.715Z,8736.00
2022-11-28T09:17:47.678Z,8548.00
2022-11-28T09:18:47.651Z,8264.00
2022-11-28T09:19:47.695Z,8436.00
2022-11-28T09:20:47.652Z,8444.00
2022-11-28T09:21:47.621Z,8180.00
2022-11-28T09:22:47.689Z,8020.00
2022-11-28T09:23:47.613Z,7692.00
2022-11-28T09:24:47.576Z,7760.00
2022-11-28T09:25:47.568Z,8044.00
2022-11-28T09:26:47.607Z,8124.00
2022-11-28T09:27:47.569Z,8080.00
2022-11-28T09:28:47.549Z,8108.00
2022-11-28T09:29:47.524Z,8184.00
2022-11-28T09:30:47.577Z,8144.00
2022-11-28T09:31:47.833Z,8208.00
2022-11-28T09:32:47.485Z,8340.00
2022-11-28T09:33:47.470Z,8408.00
2022-11-28T09:34:47.460Z,8524.00
2022-11-28T09:35:47.455Z,8608.00
2022-11-28T09:36:47.490Z,8592.00
2022-11-28T09:37:47.405Z,8772.00
2022-11-28T09:38:47.421Z,8744.00
2022-11-28T09:40:11.656Z,8860.00
2022-11-28T09:40:47.395Z,9112.00
2022-11-28T09:41:47.346Z,9240.00
2022-11-28T09:42:47.350Z,9052.00
2022-11-28T09:43:52.019Z,8976.00
2022-11-28T09:44:47.309Z,9068.00
2022-11-28T09:45:47.340Z,9264.00
2022-11-28T09:46:47.451Z,9220.00
2022-11-28T09:47:47.290Z,9332.00
2022-11-28T09:48:47.245Z,9724.00
2022-11-28T09:49:47.623Z,9716.00
2022-11-28T09:50:47.226Z,9568.00
2022-11-28T09:51:47.227Z,9468.00
2022-11-28T09:52:47.320Z,9244.00
2022-11-28T09:53:47.202Z,9304.00
2022-11-28T09:54:47.167Z,9020.00
2022-11-28T09:55:47.174Z,8928.00
2022-11-28T09:56:47.147Z,8952.00
2022-11-28T09:57:47.160Z,8732.00
2022-11-28T09:58:47.111Z,8748.00
2022-11-28T09:59:47.115Z,8544.00
2022-11-28T10:00:50.244Z,8256.00
2022-11-28T10:01:47.112Z,8280.00
2022-11-28T10:02:47.107Z,8112.00
2022-11-28T10:03:47.189Z,8000.00
2022-11-28T10:04:47.093Z,7952.00
2022-11-28T10:05:47.025Z,7844.00
2022-11-28T10:06:47.026Z,7812.00
2022-11-28T10:07:50.976Z,7724.00
2022-11-28T10:08:47.018Z,7588.00
2022-11-28T10:09:47.003Z,7632.00
2022-11-28T10:10:47.007Z,7652.00
2022-11-28T10:11:46.995Z,7676.00
2022-11-28T10:12:46.951Z,7684.00
2022-11-28T10:14:07.221Z,7736.00
2022-11-28T10:14:46.921Z,7668.00
2022-11-28T10:15:46.912Z,7888.00
2022-11-28T10:16:47.066Z,7940.00
2022-11-28T10:17:46.913Z,7876.00
2022-11-28T10:18:46.871Z,8116.00
2022-11-28T10:19:54.191Z,8216.00
2022-11-28T10:20:46.854Z,8264.00
2022-11-28T10:21:46.827Z,8276.00
2022-11-28T10:22:46.806Z,8308.00
2022-11-28T10:23:46.819Z,8312.00
2022-11-28T10:24:46.793Z,8276.00
2022-11-28T10:25:46.762Z,8184.00
2022-11-28T10:26:46.800Z,8108.00
2022-11-28T10:27:46.740Z,8000.00
2022-11-28T10:28:46.720Z,7912.00
2022-11-28T10:29:46.738Z,7796.00
2022-11-28T10:30:46.841Z,7664.00
2022-11-28T10:31:46.688Z,7544.00
2022-11-28T10:32:46.718Z,7420.00
2022-11-28T10:33:46.690Z,7304.00
2022-11-28T10:34:46.663Z,7132.00
2022-11-28T10:35:46.655Z,6984.00
2022-11-28T10:36:46.618Z,6828.00
2022-11-28T10:37:46.759Z,6676.00
2022-11-28T10:38:46.612Z,6524.00
2022-11-28T10:39:46.615Z,6400.00
2022-11-28T10:40:46.585Z,6292.00
2022-11-28T10:41:46.577Z,6192.00
2022-11-28T10:42:46.604Z,6144.00
2022-11-28T10:43:46.552Z,6108.00
2022-11-28T10:44:46.521Z,6080.00
2022-11-28T10:45:46.546Z,6048.00
2022-11-28T10:46:46.507Z,6012.00
2022-11-28T10:47:46.502Z,5972.00
2022-11-28T10:48:46.495Z,5936.00
2022-11-28T10:49:46.484Z,5892.00
2022-11-28T10:50:46.439Z,5840.00
2022-11-28T10:51:46.444Z,5772.00
2022-11-28T10:52:46.425Z,5692.00
2022-11-28T10:53:46.418Z,5620.00
2022-11-28T10:54:46.425Z,5564.00
2022-11-28T10:55:46.413Z,5508.00
2022-11-28T10:56:46.413Z,5476.00
2022-11-28T10:57:46.348Z,5448.00
2022-11-28T10:58:46.346Z,5436.00
2022-11-28T10:59:46.364Z,5416.00
2022-11-28T11:00:46.333Z,5404.00
2022-11-28T11:01:50.170Z,5400.00
2022-11-28T11:02:46.286Z,5404.00
2022-11-28T11:03:46.298Z,5432.00
2022-11-28T11:04:46.329Z,5480.00
2022-11-28T11:05:46.253Z,5536.00
2022-11-28T11:07:06.843Z,5584.00
2022-11-28T11:07:46.293Z,5640.00
2022-11-28T11:08:46.220Z,5696.00
2022-11-28T11:09:46.386Z,5740.00
2022-11-28T11:10:46.221Z,5788.00
2022-11-28T11:11:46.187Z,5836.00
2022-11-28T11:12:46.166Z,5876.00
2022-11-28T11:13:46.162Z,5912.00
2022-11-28T11:14:46.132Z,5940.00
2022-11-28T11:15:46.299Z,5984.00
2022-11-28T11:16:46.137Z,6040.00
2022-11-28T11:17:46.109Z,6100.00
2022-11-28T11:18:46.069Z,6148.00
2022-11-28T11:19:46.179Z,6184.00
2022-11-28T11:20:46.058Z,6232.00
2022-11-28T11:21:46.037Z,6276.00
2022-11-28T11:22:46.240Z,6312.00
2022-11-28T11:23:46.026Z,6332.00
2022-11-28T11:24:46.006Z,6320.00
2022-11-28T11:25:46.000Z,6292.00
2022-11-28T11:26:46.027Z,6248.00
2022-11-28T11:27:46.012Z,6172.00
2022-11-28T11:28:45.946Z,6096.00
2022-11-28T11:29:49.251Z,6036.00
2022-11-28T11:30:45.959Z,6000.00
2022-11-28T11:31:45.916Z,5984.00
2022-11-28T11:32:50.076Z,5968.00
2022-11-28T11:33:45.897Z,5932.00
2022-11-28T11:34:45.906Z,5884.00
2022-11-28T11:35:45.899Z,5840.00
2022-11-28T11:36:45.884Z,5808.00
2022-11-28T11:37:45.878Z,5784.00
2022-11-28T11:38:45.858Z,5772.00
2022-11-28T11:39:45.872Z,5796.00
2022-11-28T11:40:45.889Z,5864.00
2022-11-28T11:41:45.832Z,5980.00
2022-11-28T11:42:45.816Z,6140.00
2022-11-28T11:43:45.806Z,6312.00
2022-11-28T11:44:45.852Z,6488.00
2022-11-28T11:45:51.159Z,6660.00
2022-11-28T11:46:45.847Z,6800.00
2022-11-28T11:47:45.849Z,6912.00
2022-11-28T11:48:45.833Z,7008.00
2022-11-28T11:49:46.036Z,7084.00
2022-11-28T11:50:45.792Z,7152.00
2022-11-28T11:51:45.843Z,7208.00
2022-11-28T11:52:45.838Z,7244.00
2022-11-28T11:53:45.813Z,7256.00
2022-11-28T11:54:45.681Z,7244.00
2022-11-28T11:55:45.609Z,7208.00
2022-11-28T11:56:45.636Z,7160.00
2022-11-28T11:57:45.629Z,7100.00
2022-11-28T11:58:45.581Z,7080.00
2022-11-28T11:59:45.755Z,7084.00
2022-11-28T12:00:45.558Z,7104.00
2022-11-28T12:01:45.578Z,7108.00
2022-11-28T12:02:45.646Z,7044.00
2022-11-28T12:03:45.608Z,6932.00
2022-11-28T12:04:48.949Z,6788.00
2022-11-28T12:06:12.212Z,6648.00
2022-11-28T12:06:45.507Z,6504.00
2022-11-28T12:07:45.496Z,6384.00
2022-11-28T12:08:45.428Z,6240.00
2022-11-28T12:09:45.914Z,6036.00
2022-11-28T12:10:45.415Z,5828.00
2022-11-28T12:11:47.021Z,5660.00
2022-11-28T12:12:45.429Z,5516.00
2022-11-28T12:13:45.409Z,5396.00
2022-11-28T12:14:45.662Z,5292.00
2022-11-28T12:15:45.410Z,5184.00
2022-11-28T12:16:45.645Z,5064.00
2022-11-28T12:17:50.695Z,4952.00
2022-11-28T12:18:45.333Z,4872.00
2022-11-28T12:19:45.342Z,4820.00
2022-11-28T12:20:45.325Z,4772.00
2022-11-28T12:21:45.279Z,4724.00
2022-11-28T12:22:45.280Z,4668.00
2022-11-28T12:23:45.362Z,4580.00
2022-11-28T12:24:45.455Z,4464.00
2022-11-28T12:25:45.286Z,4316.00
2022-11-28T12:26:45.246Z,4168.00
2022-11-28T12:27:45.203Z,4036.00
2022-11-28T12:28:45.200Z,3936.00
2022-11-28T12:29:45.430Z,3876.00
2022-11-28T12:30:45.231Z,3844.00
2022-11-28T12:31:45.195Z,3848.00
2022-11-28T12:32:45.164Z,3872.00
2022-11-28T12:33:45.244Z,3900.00
2022-11-28T12:34:45.138Z,3928.00
2022-11-28T12:35:45.282Z,3964.00
2022-11-28T12:36:45.159Z,3992.00
2022-11-28T12:38:09.829Z,4024.00
2022-11-28T12:38:45.074Z,4056.00
2022-11-28T12:39:45.582Z,4084.00
2022-11-28T12:40:45.144Z,4108.00
2022-11-28T12:41:45.107Z,4148.00
2022-11-28T12:42:45.159Z,4168.00
2022-11-28T12:43:45.061Z,4184.00
2022-11-28T12:44:45.846Z,4196.00